sensor_id;sensor_type;location;lat;lon;timestamp;P1;durP1;ratioP1;P2;durP2;ratioP2
14472;SDS011;7322;50.872;4.386;2024-02-15T00:01:19;3.40;;;1.93;;
14472;SDS011;7322;50.872;4.386;2024-02-15T00:03:46;1.50;;;1.30;;
14472;SDS011;7322;50.872;4.386;2024-02-15T00:06:15;2.57;;;1.40;;
14472;SDS011;7322;50.872;4.386;2024-02-15T00:08:43;2.33;;;1.50;;
14472;SDS011;7322;50.872;4.386;2024-02-15T00:11:10;1.90;;;1.40;;
14472;SDS011;7322;50.872;4.386;2024-02-15T00:13:38;1.37;;;1.20;;
14472;SDS011;7322;50.872;4.386;2024-02-15T00:16:06;2.30;;;1.60;;
14472;SDS011;7322;50.872;4.386;2024-02-15T00:18:33;2.70;;;1.53;;
14472;SDS011;7322;50.872;4.386;2024-02-15T00:21:00;2.80;;;1.40;;
14472;SDS011;7322;50.872;4.386;2024-02-15T00:23:27;2.33;;;1.53;;
14472;SDS011;7322;50.872;4.386;2024-02-15T00:25:56;1.83;;;1.50;;
14472;SDS011;7322;50.872;4.386;2024-02-15T00:28:23;2.80;;;1.77;;
14472;SDS011;7322;50.872;4.386;2024-02-15T00:30:51;1.77;;;1.40;;
14472;SDS011;7322;50.872;4.386;2024-02-15T00:33:19;3.10;;;1.77;;
14472;SDS011;7322;50.872;4.386;2024-02-15T00:35:47;2.20;;;1.40;;
14472;SDS011;7322;50.872;4.386;2024-02-15T00:38:15;2.13;;;1.70;;
14472;SDS011;7322;50.872;4.386;2024-02-15T00:40:42;2.30;;;1.50;;
14472;SDS011;7322;50.872;4.386;2024-02-15T00:43:12;2.47;;;1.57;;
14472;SDS011;7322;50.872;4.386;2024-02-15T00:45:39;2.10;;;1.47;;
14472;SDS011;7322;50.872;4.386;2024-02-15T00:48:06;2.27;;;1.80;;
14472;SDS011;7322;50.872;4.386;2024-02-15T00:50:35;2.33;;;1.57;;
14472;SDS011;7322;50.872;4.386;2024-02-15T00:53:02;2.47;;;1.60;;
14472;SDS011;7322;50.872;4.386;2024-02-15T00:55:29;2.60;;;1.50;;
14472;SDS011;7322;50.872;4.386;2024-02-15T00:57:57;2.60;;;1.60;;
14472;SDS011;7322;50.872;4.386;2024-02-15T01:00:27;3.20;;;1.70;;
14472;SDS011;7322;50.872;4.386;2024-02-15T01:02:54;2.30;;;1.47;;
14472;SDS011;7322;50.872;4.386;2024-02-15T01:05:21;2.13;;;1.50;;
14472;SDS011;7322;50.872;4.386;2024-02-15T01:07:49;1.70;;;1.30;;
14472;SDS011;7322;50.872;4.386;2024-02-15T01:10:18;2.90;;;1.63;;
14472;SDS011;7322;50.872;4.386;2024-02-15T01:12:45;3.80;;;1.80;;
14472;SDS011;7322;50.872;4.386;2024-02-15T01:15:12;2.43;;;1.50;;
14472;SDS011;7322;50.872;4.386;2024-02-15T01:17:42;1.70;;;1.50;;
14472;SDS011;7322;50.872;4.386;2024-02-15T01:20:09;1.97;;;1.30;;
14472;SDS011;7322;50.872;4.386;2024-02-15T01:22:37;2.43;;;1.53;;
14472;SDS011;7322;50.872;4.386;2024-02-15T01:25:05;2.60;;;1.80;;
14472;SDS011;7322;50.872;4.386;2024-02-15T01:27:33;3.10;;;1.60;;
14472;SDS011;7322;50.872;4.386;2024-02-15T01:30:01;2.13;;;1.40;;
14472;SDS011;7322;50.872;4.386;2024-02-15T01:32:29;2.87;;;1.50;;
14472;SDS011;7322;50.872;4.386;2024-02-15T01:34:58;3.50;;;1.67;;
14472;SDS011;7322;50.872;4.386;2024-02-15T01:37:26;2.43;;;1.67;;
14472;SDS011;7322;50.872;4.386;2024-02-15T01:39:53;2.07;;;1.47;;
14472;SDS011;7322;50.872;4.386;2024-02-15T01:42:20;2.40;;;1.50;;
14472;SDS011;7322;50.872;4.386;2024-02-15T01:44:47;2.60;;;1.60;;
14472;SDS011;7322;50.872;4.386;2024-02-15T01:47:14;3.23;;;1.60;;
14472;SDS011;7322;50.872;4.386;2024-02-15T01:49:45;2.30;;;1.47;;
14472;SDS011;7322;50.872;4.386;2024-02-15T01:52:15;2.63;;;1.50;;
14472;SDS011;7322;50.872;4.386;2024-02-15T01:54:44;2.47;;;1.40;;
14472;SDS011;7322;50.872;4.386;2024-02-15T01:57:12;3.80;;;1.57;;
14472;SDS011;7322;50.872;4.386;2024-02-15T01:59:39;1.60;;;1.30;;
14472;SDS011;7322;50.872;4.386;2024-02-15T02:02:08;2.17;;;1.40;;
14472;SDS011;7322;50.872;4.386;2024-02-15T02:04:37;1.70;;;1.60;;
14472;SDS011;7322;50.872;4.386;2024-02-15T02:07:05;2.37;;;1.40;;
14472;SDS011;7322;50.872;4.386;2024-02-15T02:09:34;2.13;;;1.50;;
14472;SDS011;7322;50.872;4.386;2024-02-15T02:12:01;4.27;;;1.60;;
14472;SDS011;7322;50.872;4.386;2024-02-15T02:14:28;2.40;;;1.50;;
14472;SDS011;7322;50.872;4.386;2024-02-15T02:16:58;2.20;;;1.30;;
14472;SDS011;7322;50.872;4.386;2024-02-15T02:19:37;2.03;;;1.50;;
14472;SDS011;7322;50.872;4.386;2024-02-15T02:22:04;1.77;;;1.20;;
14472;SDS011;7322;50.872;4.386;2024-02-15T02:24:36;1.87;;;1.20;;
14472;SDS011;7322;50.872;4.386;2024-02-15T02:27:17;2.83;;;1.30;;
14472;SDS011;7322;50.872;4.386;2024-02-15T02:29:45;2.23;;;1.70;;
14472;SDS011;7322;50.872;4.386;2024-02-15T02:32:12;1.60;;;1.23;;
14472;SDS011;7322;50.872;4.386;2024-02-15T02:34:39;2.13;;;1.57;;
14472;SDS011;7322;50.872;4.386;2024-02-15T02:37:06;1.63;;;1.17;;
14472;SDS011;7322;50.872;4.386;2024-02-15T02:39:34;2.57;;;1.60;;
14472;SDS011;7322;50.872;4.386;2024-02-15T02:42:01;2.33;;;1.30;;
14472;SDS011;7322;50.872;4.386;2024-02-15T02:44:31;2.23;;;1.60;;
14472;SDS011;7322;50.872;4.386;2024-02-15T02:46:58;1.93;;;1.13;;
14472;SDS011;7322;50.872;4.386;2024-02-15T02:49:25;1.97;;;1.30;;
14472;SDS011;7322;50.872;4.386;2024-02-15T02:51:52;1.70;;;1.40;;
14472;SDS011;7322;50.872;4.386;2024-02-15T02:54:19;1.63;;;1.20;;
14472;SDS011;7322;50.872;4.386;2024-02-15T02:56:46;2.50;;;1.33;;
14472;SDS011;7322;50.872;4.386;2024-02-15T02:59:13;1.53;;;1.30;;
14472;SDS011;7322;50.872;4.386;2024-02-15T03:01:42;2.03;;;1.20;;
14472;SDS011;7322;50.872;4.386;2024-02-15T03:04:09;2.47;;;1.60;;
14472;SDS011;7322;50.872;4.386;2024-02-15T03:06:42;2.97;;;1.50;;
14472;SDS011;7322;50.872;4.386;2024-02-15T03:09:09;1.67;;;1.27;;
14472;SDS011;7322;50.872;4.386;2024-02-15T03:11:39;1.90;;;1.23;;
14472;SDS011;7322;50.872;4.386;2024-02-15T03:14:06;1.60;;;1.30;;
14472;SDS011;7322;50.872;4.386;2024-02-15T03:16:33;1.83;;;1.30;;
14472;SDS011;7322;50.872;4.386;2024-02-15T03:19:02;2.13;;;1.27;;
14472;SDS011;7322;50.872;4.386;2024-02-15T03:21:29;2.30;;;1.30;;
14472;SDS011;7322;50.872;4.386;2024-02-15T03:23:56;1.97;;;1.30;;
14472;SDS011;7322;50.872;4.386;2024-02-15T03:26:29;1.97;;;1.27;;
14472;SDS011;7322;50.872;4.386;2024-02-15T03:28:58;2.47;;;1.30;;
14472;SDS011;7322;50.872;4.386;2024-02-15T03:31:25;1.60;;;1.23;;
14472;SDS011;7322;50.872;4.386;2024-02-15T03:33:52;1.83;;;1.30;;
14472;SDS011;7322;50.872;4.386;2024-02-15T03:36:21;1.40;;;1.10;;
14472;SDS011;7322;50.872;4.386;2024-02-15T03:38:48;1.40;;;1.20;;
14472;SDS011;7322;50.872;4.386;2024-02-15T03:41:15;2.37;;;1.30;;
14472;SDS011;7322;50.872;4.386;2024-02-15T03:43:42;3.40;;;1.23;;
14472;SDS011;7322;50.872;4.386;2024-02-15T03:46:09;2.60;;;1.50;;
14472;SDS011;7322;50.872;4.386;2024-02-15T03:48:37;1.80;;;1.27;;
14472;SDS011;7322;50.872;4.386;2024-02-15T03:51:06;2.03;;;1.20;;
14472;SDS011;7322;50.872;4.386;2024-02-15T03:53:35;2.23;;;1.50;;
14472;SDS011;7322;50.872;4.386;2024-02-15T03:56:03;1.93;;;1.07;;
14472;SDS011;7322;50.872;4.386;2024-02-15T03:58:30;1.23;;;1.10;;
14472;SDS011;7322;50.872;4.386;2024-02-15T04:00:58;1.23;;;1.10;;
14472;SDS011;7322;50.872;4.386;2024-02-15T04:03:26;2.00;;;1.37;;
14472;SDS011;7322;50.872;4.386;2024-02-15T04:05:53;1.17;;;0.97;;
14472;SDS011;7322;50.872;4.386;2024-02-15T04:08:20;2.00;;;1.20;;
14472;SDS011;7322;50.872;4.386;2024-02-15T04:10:49;1.33;;;1.20;;
14472;SDS011;7322;50.872;4.386;2024-02-15T04:13:16;1.73;;;1.10;;
14472;SDS011;7322;50.872;4.386;2024-02-15T04:15:43;2.47;;;1.40;;
14472;SDS011;7322;50.872;4.386;2024-02-15T04:18:12;1.90;;;1.00;;
14472;SDS011;7322;50.872;4.386;2024-02-15T04:20:39;1.60;;;1.20;;
14472;SDS011;7322;50.872;4.386;2024-02-15T04:23:10;1.23;;;1.10;;
14472;SDS011;7322;50.872;4.386;2024-02-15T04:25:37;1.60;;;1.27;;
14472;SDS011;7322;50.872;4.386;2024-02-15T04:28:05;2.33;;;1.40;;
14472;SDS011;7322;50.872;4.386;2024-02-15T04:30:34;1.50;;;1.27;;
14472;SDS011;7322;50.872;4.386;2024-02-15T04:33:03;2.30;;;1.23;;
14472;SDS011;7322;50.872;4.386;2024-02-15T04:35:31;1.87;;;1.20;;
14472;SDS011;7322;50.872;4.386;2024-02-15T04:37:59;2.20;;;1.27;;
14472;SDS011;7322;50.872;4.386;2024-02-15T04:40:26;1.73;;;1.00;;
14472;SDS011;7322;50.872;4.386;2024-02-15T04:42:53;1.40;;;1.10;;
14472;SDS011;7322;50.872;4.386;2024-02-15T04:45:21;2.10;;;1.20;;
14472;SDS011;7322;50.872;4.386;2024-02-15T04:47:49;2.07;;;1.40;;
14472;SDS011;7322;50.872;4.386;2024-02-15T04:50:17;2.23;;;1.10;;
14472;SDS011;7322;50.872;4.386;2024-02-15T04:52:46;1.57;;;1.30;;
14472;SDS011;7322;50.872;4.386;2024-02-15T04:55:14;1.50;;;1.40;;
14472;SDS011;7322;50.872;4.386;2024-02-15T04:57:43;1.23;;;1.00;;
14472;SDS011;7322;50.872;4.386;2024-02-15T05:00:13;1.50;;;1.10;;
14472;SDS011;7322;50.872;4.386;2024-02-15T05:02:43;1.30;;;1.00;;
14472;SDS011;7322;50.872;4.386;2024-02-15T05:05:11;3.17;;;1.10;;
14472;SDS011;7322;50.872;4.386;2024-02-15T05:07:38;0.97;;;0.90;;
14472;SDS011;7322;50.872;4.386;2024-02-15T05:10:06;2.77;;;1.30;;
14472;SDS011;7322;50.872;4.386;2024-02-15T05:12:34;1.43;;;1.07;;
14472;SDS011;7322;50.872;4.386;2024-02-15T05:15:01;2.30;;;1.27;;
14472;SDS011;7322;50.872;4.386;2024-02-15T05:17:35;1.23;;;1.00;;
14472;SDS011;7322;50.872;4.386;2024-02-15T05:20:04;1.50;;;1.10;;
14472;SDS011;7322;50.872;4.386;2024-02-15T05:22:36;2.20;;;1.20;;
14472;SDS011;7322;50.872;4.386;2024-02-15T05:25:04;2.70;;;1.27;;
14472;SDS011;7322;50.872;4.386;2024-02-15T05:27:33;1.80;;;1.30;;
14472;SDS011;7322;50.872;4.386;2024-02-15T05:30:01;1.23;;;0.90;;
14472;SDS011;7322;50.872;4.386;2024-02-15T05:32:32;1.40;;;1.00;;
14472;SDS011;7322;50.872;4.386;2024-02-15T05:35:09;1.63;;;1.20;;
14472;SDS011;7322;50.872;4.386;2024-02-15T05:37:36;1.97;;;1.20;;
14472;SDS011;7322;50.872;4.386;2024-02-15T05:40:04;1.37;;;1.10;;
14472;SDS011;7322;50.872;4.386;2024-02-15T05:42:32;2.13;;;1.03;;
14472;SDS011;7322;50.872;4.386;2024-02-15T05:45:26;1.63;;;1.07;;
14472;SDS011;7322;50.872;4.386;2024-02-15T05:47:57;1.40;;;0.90;;
14472;SDS011;7322;50.872;4.386;2024-02-15T05:50:27;1.50;;;1.10;;
14472;SDS011;7322;50.872;4.386;2024-02-15T05:52:55;2.47;;;1.10;;
14472;SDS011;7322;50.872;4.386;2024-02-15T05:55:23;2.20;;;1.13;;
14472;SDS011;7322;50.872;4.386;2024-02-15T05:57:51;1.37;;;1.10;;
14472;SDS011;7322;50.872;4.386;2024-02-15T06:00:19;2.47;;;1.10;;
14472;SDS011;7322;50.872;4.386;2024-02-15T06:02:47;1.60;;;1.10;;
14472;SDS011;7322;50.872;4.386;2024-02-15T06:05:14;2.97;;;1.00;;
14472;SDS011;7322;50.872;4.386;2024-02-15T06:07:43;1.47;;;1.30;;
14472;SDS011;7322;50.872;4.386;2024-02-15T06:10:11;3.13;;;1.10;;
14472;SDS011;7322;50.872;4.386;2024-02-15T06:12:39;1.67;;;1.10;;
14472;SDS011;7322;50.872;4.386;2024-02-15T06:15:07;1.63;;;0.90;;
14472;SDS011;7322;50.872;4.386;2024-02-15T06:17:41;1.67;;;1.20;;
14472;SDS011;7322;50.872;4.386;2024-02-15T06:20:11;3.03;;;1.03;;
14472;SDS011;7322;50.872;4.386;2024-02-15T06:22:44;1.93;;;1.10;;
14472;SDS011;7322;50.872;4.386;2024-02-15T06:25:11;3.37;;;1.33;;
14472;SDS011;7322;50.872;4.386;2024-02-15T06:27:40;2.23;;;1.17;;
14472;SDS011;7322;50.872;4.386;2024-02-15T06:30:08;5.70;;;1.40;;
14472;SDS011;7322;50.872;4.386;2024-02-15T06:32:52;3.50;;;1.30;;
14472;SDS011;7322;50.872;4.386;2024-02-15T06:35:37;4.77;;;1.30;;
14472;SDS011;7322;50.872;4.386;2024-02-15T06:38:23;2.20;;;1.30;;
14472;SDS011;7322;50.872;4.386;2024-02-15T06:41:10;7.13;;;1.30;;
14472;SDS011;7322;50.872;4.386;2024-02-15T06:43:44;7.67;;;2.00;;
14472;SDS011;7322;50.872;4.386;2024-02-15T06:46:11;4.30;;;1.40;;
14472;SDS011;7322;50.872;4.386;2024-02-15T06:48:41;5.07;;;1.70;;
14472;SDS011;7322;50.872;4.386;2024-02-15T06:51:11;6.87;;;1.70;;
14472;SDS011;7322;50.872;4.386;2024-02-15T06:53:41;3.03;;;1.53;;
14472;SDS011;7322;50.872;4.386;2024-02-15T06:56:08;7.27;;;1.33;;
14472;SDS011;7322;50.872;4.386;2024-02-15T06:58:36;5.40;;;1.50;;
14472;SDS011;7322;50.872;4.386;2024-02-15T07:01:05;4.77;;;1.70;;
14472;SDS011;7322;50.872;4.386;2024-02-15T07:03:32;5.83;;;1.53;;
14472;SDS011;7322;50.872;4.386;2024-02-15T07:05:59;8.00;;;1.80;;
14472;SDS011;7322;50.872;4.386;2024-02-15T07:08:27;14.63;;;3.20;;
14472;SDS011;7322;50.872;4.386;2024-02-15T07:10:56;9.27;;;2.43;;
14472;SDS011;7322;50.872;4.386;2024-02-15T07:13:23;11.47;;;2.83;;
14472;SDS011;7322;50.872;4.386;2024-02-15T07:15:51;7.13;;;2.07;;
14472;SDS011;7322;50.872;4.386;2024-02-15T07:18:18;11.50;;;2.70;;
14472;SDS011;7322;50.872;4.386;2024-02-15T07:20:48;10.00;;;2.33;;
14472;SDS011;7322;50.872;4.386;2024-02-15T07:23:15;7.03;;;2.20;;
14472;SDS011;7322;50.872;4.386;2024-02-15T07:25:42;8.07;;;2.10;;
14472;SDS011;7322;50.872;4.386;2024-02-15T07:28:16;12.70;;;2.70;;
14472;SDS011;7322;50.872;4.386;2024-02-15T07:30:51;8.90;;;2.17;;
14472;SDS011;7322;50.872;4.386;2024-02-15T07:33:35;6.40;;;2.00;;
14472;SDS011;7322;50.872;4.386;2024-02-15T07:36:05;8.07;;;2.10;;
14472;SDS011;7322;50.872;4.386;2024-02-15T07:38:32;8.17;;;2.17;;
14472;SDS011;7322;50.872;4.386;2024-02-15T07:46:25;9.53;;;2.23;;
14472;SDS011;7322;50.872;4.386;2024-02-15T07:48:53;6.67;;;2.00;;
14472;SDS011;7322;50.872;4.386;2024-02-15T07:51:26;6.53;;;2.07;;
14472;SDS011;7322;50.872;4.386;2024-02-15T07:53:53;6.13;;;2.33;;
14472;SDS011;7322;50.872;4.386;2024-02-15T07:56:23;7.70;;;2.27;;
14472;SDS011;7322;50.872;4.386;2024-02-15T07:59:01;6.30;;;1.87;;
14472;SDS011;7322;50.872;4.386;2024-02-15T08:01:29;5.50;;;2.10;;
14472;SDS011;7322;50.872;4.386;2024-02-15T08:03:57;5.40;;;1.70;;
14472;SDS011;7322;50.872;4.386;2024-02-15T08:06:26;5.00;;;2.17;;
14472;SDS011;7322;50.872;4.386;2024-02-15T08:08:55;4.77;;;2.03;;
14472;SDS011;7322;50.872;4.386;2024-02-15T08:11:24;6.37;;;2.07;;
14472;SDS011;7322;50.872;4.386;2024-02-15T08:13:53;6.23;;;1.90;;
14472;SDS011;7322;50.872;4.386;2024-02-15T08:16:29;5.83;;;2.10;;
14472;SDS011;7322;50.872;4.386;2024-02-15T08:18:56;7.83;;;2.13;;
14472;SDS011;7322;50.872;4.386;2024-02-15T08:21:26;5.33;;;1.80;;
14472;SDS011;7322;50.872;4.386;2024-02-15T08:23:55;3.90;;;1.90;;
14472;SDS011;7322;50.872;4.386;2024-02-15T08:26:23;5.47;;;1.70;;
14472;SDS011;7322;50.872;4.386;2024-02-15T08:28:52;5.63;;;1.90;;
14472;SDS011;7322;50.872;4.386;2024-02-15T08:31:28;7.60;;;2.00;;
14472;SDS011;7322;50.872;4.386;2024-02-15T08:33:56;4.30;;;1.73;;
14472;SDS011;7322;50.872;4.386;2024-02-15T08:36:25;5.57;;;2.30;;
14472;SDS011;7322;50.872;4.386;2024-02-15T08:38:53;6.10;;;2.13;;
14472;SDS011;7322;50.872;4.386;2024-02-15T08:41:22;5.47;;;1.87;;
14472;SDS011;7322;50.872;4.386;2024-02-15T08:49:10;3.50;;;2.10;;
14472;SDS011;7322;50.872;4.386;2024-02-15T08:51:45;4.90;;;1.83;;
14472;SDS011;7322;50.872;4.386;2024-02-15T08:56:44;3.23;;;1.57;;
14472;SDS011;7322;50.872;4.386;2024-02-15T08:59:12;4.53;;;1.60;;
14472;SDS011;7322;50.872;4.386;2024-02-15T09:01:44;3.70;;;1.57;;
14472;SDS011;7322;50.872;4.386;2024-02-15T09:04:13;6.77;;;2.03;;
14472;SDS011;7322;50.872;4.386;2024-02-15T09:09:32;4.27;;;1.67;;
14472;SDS011;7322;50.872;4.386;2024-02-15T09:12:07;8.67;;;2.20;;
14472;SDS011;7322;50.872;4.386;2024-02-15T09:14:43;4.03;;;1.73;;
14472;SDS011;7322;50.872;4.386;2024-02-15T09:17:19;6.53;;;1.83;;
14472;SDS011;7322;50.872;4.386;2024-02-15T09:19:48;6.10;;;1.57;;
14472;SDS011;7322;50.872;4.386;2024-02-15T09:22:29;5.10;;;1.50;;
14472;SDS011;7322;50.872;4.386;2024-02-15T09:25:07;4.77;;;1.53;;
14472;SDS011;7322;50.872;4.386;2024-02-15T09:27:42;4.20;;;1.63;;
14472;SDS011;7322;50.872;4.386;2024-02-15T09:30:16;3.57;;;1.53;;
14472;SDS011;7322;50.872;4.386;2024-02-15T09:32:45;3.53;;;1.57;;
14472;SDS011;7322;50.872;4.386;2024-02-15T09:35:20;6.77;;;1.97;;
14472;SDS011;7322;50.872;4.386;2024-02-15T09:37:48;4.37;;;1.80;;
14472;SDS011;7322;50.872;4.386;2024-02-15T09:42:59;4.10;;;1.50;;
14472;SDS011;7322;50.872;4.386;2024-02-15T09:45:43;4.23;;;1.70;;
14472;SDS011;7322;50.872;4.386;2024-02-15T09:51:04;3.50;;;1.43;;
14472;SDS011;7322;50.872;4.386;2024-02-15T09:53:45;4.87;;;1.77;;
14472;SDS011;7322;50.872;4.386;2024-02-15T10:11:52;7.17;;;1.47;;
14472;SDS011;7322;50.872;4.386;2024-02-15T10:14:27;2.97;;;1.47;;
14472;SDS011;7322;50.872;4.386;2024-02-15T10:16:56;3.70;;;1.33;;
14472;SDS011;7322;50.872;4.386;2024-02-15T10:19:27;2.57;;;1.60;;
14472;SDS011;7322;50.872;4.386;2024-02-15T10:22:06;3.47;;;1.63;;
14472;SDS011;7322;50.872;4.386;2024-02-15T10:24:35;2.97;;;1.37;;
14472;SDS011;7322;50.872;4.386;2024-02-15T10:27:08;2.77;;;1.30;;
14472;SDS011;7322;50.872;4.386;2024-02-15T10:29:39;3.90;;;1.30;;
14472;SDS011;7322;50.872;4.386;2024-02-15T10:32:12;3.60;;;1.30;;
14472;SDS011;7322;50.872;4.386;2024-02-15T10:34:43;4.03;;;1.50;;
14472;SDS011;7322;50.872;4.386;2024-02-15T10:37:11;3.00;;;1.47;;
14472;SDS011;7322;50.872;4.386;2024-02-15T10:39:40;2.13;;;1.27;;
14472;SDS011;7322;50.872;4.386;2024-02-15T10:42:13;3.57;;;1.23;;
14472;SDS011;7322;50.872;4.386;2024-02-15T10:44:42;3.17;;;1.37;;
14472;SDS011;7322;50.872;4.386;2024-02-15T10:47:13;3.53;;;1.37;;
14472;SDS011;7322;50.872;4.386;2024-02-15T10:49:41;2.50;;;1.40;;
14472;SDS011;7322;50.872;4.386;2024-02-15T10:52:09;3.23;;;1.20;;
14472;SDS011;7322;50.872;4.386;2024-02-15T10:54:43;4.23;;;1.50;;
14472;SDS011;7322;50.872;4.386;2024-02-15T10:57:20;2.80;;;1.30;;
14472;SDS011;7322;50.872;4.386;2024-02-15T10:59:52;3.37;;;1.23;;
14472;SDS011;7322;50.872;4.386;2024-02-15T11:02:26;2.20;;;1.40;;
14472;SDS011;7322;50.872;4.386;2024-02-15T11:05:01;2.93;;;1.20;;
14472;SDS011;7322;50.872;4.386;2024-02-15T11:07:31;2.67;;;1.13;;
14472;SDS011;7322;50.872;4.386;2024-02-15T11:10:00;3.10;;;1.17;;
14472;SDS011;7322;50.872;4.386;2024-02-15T11:12:31;1.87;;;1.17;;
14472;SDS011;7322;50.872;4.386;2024-02-15T11:14:58;3.50;;;1.07;;
14472;SDS011;7322;50.872;4.386;2024-02-15T11:23:25;2.93;;;1.40;;
14472;SDS011;7322;50.872;4.386;2024-02-15T11:25:55;2.77;;;1.10;;
14472;SDS011;7322;50.872;4.386;2024-02-15T11:28:43;3.07;;;1.43;;
14472;SDS011;7322;50.872;4.386;2024-02-15T11:46:25;2.57;;;1.20;;
14472;SDS011;7322;50.872;4.386;2024-02-15T11:48:56;3.53;;;1.57;;
14472;SDS011;7322;50.872;4.386;2024-02-15T11:51:30;3.77;;;1.57;;
14472;SDS011;7322;50.872;4.386;2024-02-15T11:54:09;2.83;;;1.30;;
14472;SDS011;7322;50.872;4.386;2024-02-15T11:56:55;2.57;;;1.17;;
14472;SDS011;7322;50.872;4.386;2024-02-15T11:59:38;3.27;;;1.37;;
14472;SDS011;7322;50.872;4.386;2024-02-15T12:02:18;2.63;;;1.30;;
14472;SDS011;7322;50.872;4.386;2024-02-15T12:05:05;2.53;;;1.60;;
14472;SDS011;7322;50.872;4.386;2024-02-15T12:13:50;2.13;;;1.20;;
14472;SDS011;7322;50.872;4.386;2024-02-15T12:16:37;1.80;;;1.20;;
14472;SDS011;7322;50.872;4.386;2024-02-15T12:19:29;2.70;;;1.20;;
14472;SDS011;7322;50.872;4.386;2024-02-15T12:21:57;2.40;;;1.03;;
14472;SDS011;7322;50.872;4.386;2024-02-15T12:24:27;2.50;;;1.20;;
14472;SDS011;7322;50.872;4.386;2024-02-15T12:26:59;2.00;;;1.20;;
14472;SDS011;7322;50.872;4.386;2024-02-15T12:29:30;1.47;;;1.10;;
14472;SDS011;7322;50.872;4.386;2024-02-15T12:32:03;1.67;;;1.20;;
14472;SDS011;7322;50.872;4.386;2024-02-15T12:34:31;3.03;;;1.20;;
14472;SDS011;7322;50.872;4.386;2024-02-15T12:37:10;2.03;;;1.10;;
14472;SDS011;7322;50.872;4.386;2024-02-15T12:39:37;3.17;;;1.27;;
14472;SDS011;7322;50.872;4.386;2024-02-15T12:42:06;1.70;;;1.00;;
14472;SDS011;7322;50.872;4.386;2024-02-15T12:44:36;2.90;;;1.10;;
14472;SDS011;7322;50.872;4.386;2024-02-15T12:47:03;1.40;;;0.93;;
14472;SDS011;7322;50.872;4.386;2024-02-15T12:49:31;2.13;;;1.13;;
14472;SDS011;7322;50.872;4.386;2024-02-15T12:55:08;1.53;;;0.97;;
14472;SDS011;7322;50.872;4.386;2024-02-15T12:57:40;1.20;;;1.00;;
14472;SDS011;7322;50.872;4.386;2024-02-15T13:00:12;1.67;;;1.00;;
14472;SDS011;7322;50.872;4.386;2024-02-15T13:02:44;1.83;;;1.13;;
14472;SDS011;7322;50.872;4.386;2024-02-15T13:05:14;1.60;;;1.13;;
14472;SDS011;7322;50.872;4.386;2024-02-15T13:07:43;2.27;;;1.00;;
14472;SDS011;7322;50.872;4.386;2024-02-15T13:10:10;1.27;;;1.07;;
14472;SDS011;7322;50.872;4.386;2024-02-15T13:12:40;1.57;;;1.00;;
14472;SDS011;7322;50.872;4.386;2024-02-15T13:15:09;2.40;;;1.20;;
14472;SDS011;7322;50.872;4.386;2024-02-15T13:17:43;1.60;;;1.00;;
14472;SDS011;7322;50.872;4.386;2024-02-15T13:20:11;2.17;;;0.90;;
14472;SDS011;7322;50.872;4.386;2024-02-15T13:22:39;1.17;;;0.70;;
14472;SDS011;7322;50.872;4.386;2024-02-15T13:25:08;2.27;;;1.00;;
14472;SDS011;7322;50.872;4.386;2024-02-15T13:27:35;1.87;;;1.03;;
14472;SDS011;7322;50.872;4.386;2024-02-15T13:30:04;2.07;;;1.17;;
14472;SDS011;7322;50.872;4.386;2024-02-15T13:32:34;1.23;;;0.80;;
14472;SDS011;7322;50.872;4.386;2024-02-15T13:35:03;2.17;;;1.17;;
14472;SDS011;7322;50.872;4.386;2024-02-15T13:40:08;1.03;;;0.80;;
14472;SDS011;7322;50.872;4.386;2024-02-15T13:42:40;1.53;;;0.90;;
14472;SDS011;7322;50.872;4.386;2024-02-15T13:45:12;2.63;;;1.17;;
14472;SDS011;7322;50.872;4.386;2024-02-15T13:47:40;1.60;;;1.10;;
14472;SDS011;7322;50.872;4.386;2024-02-15T13:50:12;1.40;;;0.90;;
14472;SDS011;7322;50.872;4.386;2024-02-15T13:52:40;2.70;;;1.07;;
14472;SDS011;7322;50.872;4.386;2024-02-15T13:55:10;0.97;;;0.83;;
14472;SDS011;7322;50.872;4.386;2024-02-15T13:57:38;1.53;;;1.00;;
14472;SDS011;7322;50.872;4.386;2024-02-15T14:00:07;1.53;;;0.83;;
14472;SDS011;7322;50.872;4.386;2024-02-15T14:02:38;2.23;;;1.20;;
14472;SDS011;7322;50.872;4.386;2024-02-15T14:05:06;1.47;;;1.00;;
14472;SDS011;7322;50.872;4.386;2024-02-15T14:07:35;1.50;;;0.90;;
14472;SDS011;7322;50.872;4.386;2024-02-15T14:10:02;1.30;;;0.80;;
14472;SDS011;7322;50.872;4.386;2024-02-15T14:12:30;2.33;;;1.03;;
14472;SDS011;7322;50.872;4.386;2024-02-15T14:14:57;2.30;;;1.13;;
14472;SDS011;7322;50.872;4.386;2024-02-15T14:17:24;1.37;;;0.87;;
14472;SDS011;7322;50.872;4.386;2024-02-15T14:19:53;1.50;;;0.83;;
14472;SDS011;7322;50.872;4.386;2024-02-15T14:22:21;1.80;;;0.93;;
14472;SDS011;7322;50.872;4.386;2024-02-15T14:24:50;1.10;;;0.83;;
14472;SDS011;7322;50.872;4.386;2024-02-15T14:27:17;1.80;;;1.00;;
14472;SDS011;7322;50.872;4.386;2024-02-15T14:29:44;1.87;;;0.97;;
14472;SDS011;7322;50.872;4.386;2024-02-15T14:32:31;1.73;;;1.07;;
14472;SDS011;7322;50.872;4.386;2024-02-15T14:35:16;1.67;;;0.90;;
14472;SDS011;7322;50.872;4.386;2024-02-15T14:37:43;1.20;;;0.70;;
14472;SDS011;7322;50.872;4.386;2024-02-15T14:40:12;2.13;;;1.10;;
14472;SDS011;7322;50.872;4.386;2024-02-15T14:42:40;2.47;;;1.00;;
14472;SDS011;7322;50.872;4.386;2024-02-15T14:45:08;1.10;;;0.97;;
14472;SDS011;7322;50.872;4.386;2024-02-15T14:47:35;1.33;;;0.80;;
14472;SDS011;7322;50.872;4.386;2024-02-15T14:50:03;1.57;;;0.90;;
14472;SDS011;7322;50.872;4.386;2024-02-15T14:52:33;1.57;;;0.90;;
14472;SDS011;7322;50.872;4.386;2024-02-15T14:55:01;1.80;;;0.83;;
14472;SDS011;7322;50.872;4.386;2024-02-15T14:57:31;1.47;;;0.90;;
14472;SDS011;7322;50.872;4.386;2024-02-15T14:59:58;2.07;;;1.03;;
14472;SDS011;7322;50.872;4.386;2024-02-15T15:02:26;1.03;;;0.83;;
14472;SDS011;7322;50.872;4.386;2024-02-15T15:04:53;1.50;;;0.70;;
14472;SDS011;7322;50.872;4.386;2024-02-15T15:07:39;1.47;;;0.80;;
14472;SDS011;7322;50.872;4.386;2024-02-15T15:10:23;0.80;;;0.70;;
14472;SDS011;7322;50.872;4.386;2024-02-15T15:13:09;2.00;;;0.80;;
14472;SDS011;7322;50.872;4.386;2024-02-15T15:15:36;1.47;;;0.80;;
14472;SDS011;7322;50.872;4.386;2024-02-15T15:18:05;1.97;;;0.97;;
14472;SDS011;7322;50.872;4.386;2024-02-15T15:20:33;1.07;;;0.73;;
14472;SDS011;7322;50.872;4.386;2024-02-15T15:23:01;0.90;;;0.80;;
14472;SDS011;7322;50.872;4.386;2024-02-15T15:25:29;1.10;;;0.90;;
14472;SDS011;7322;50.872;4.386;2024-02-15T15:27:56;1.03;;;0.90;;
14472;SDS011;7322;50.872;4.386;2024-02-15T15:30:25;1.57;;;0.70;;
14472;SDS011;7322;50.872;4.386;2024-02-15T15:32:52;0.90;;;0.80;;
14472;SDS011;7322;50.872;4.386;2024-02-15T15:35:20;1.63;;;0.80;;
14472;SDS011;7322;50.872;4.386;2024-02-15T15:37:48;1.23;;;0.80;;
14472;SDS011;7322;50.872;4.386;2024-02-15T15:40:15;0.97;;;0.77;;
14472;SDS011;7322;50.872;4.386;2024-02-15T15:42:43;1.80;;;0.97;;
14472;SDS011;7322;50.872;4.386;2024-02-15T15:45:10;1.43;;;1.00;;
14472;SDS011;7322;50.872;4.386;2024-02-15T15:47:39;1.07;;;0.90;;
14472;SDS011;7322;50.872;4.386;2024-02-15T15:50:07;1.47;;;0.90;;
14472;SDS011;7322;50.872;4.386;2024-02-15T15:52:36;1.30;;;0.70;;
14472;SDS011;7322;50.872;4.386;2024-02-15T15:55:05;1.23;;;0.93;;
14472;SDS011;7322;50.872;4.386;2024-02-15T15:57:36;1.50;;;0.70;;
14472;SDS011;7322;50.872;4.386;2024-02-15T16:00:04;0.60;;;0.60;;
14472;SDS011;7322;50.872;4.386;2024-02-15T16:02:37;1.47;;;0.80;;
14472;SDS011;7322;50.872;4.386;2024-02-15T16:05:08;0.80;;;0.80;;
14472;SDS011;7322;50.872;4.386;2024-02-15T16:07:37;0.70;;;0.67;;
14472;SDS011;7322;50.872;4.386;2024-02-15T16:10:06;1.40;;;0.90;;
14472;SDS011;7322;50.872;4.386;2024-02-15T16:12:36;0.87;;;0.80;;
14472;SDS011;7322;50.872;4.386;2024-02-15T16:15:04;0.80;;;0.67;;
14472;SDS011;7322;50.872;4.386;2024-02-15T16:17:32;0.90;;;0.70;;
14472;SDS011;7322;50.872;4.386;2024-02-15T16:20:02;1.17;;;0.87;;
14472;SDS011;7322;50.872;4.386;2024-02-15T16:22:30;1.70;;;0.70;;
14472;SDS011;7322;50.872;4.386;2024-02-15T16:25:00;2.17;;;0.90;;
14472;SDS011;7322;50.872;4.386;2024-02-15T16:27:30;1.43;;;0.83;;